Time;durP1;ratioP1;P1;durP2;ratioP2;P2;SDS_P1;SDS_P2;PMS_P1;PMS_P2;Temp;Humidity;BMP_temperature;BMP_pressure;BME280_temperature;BME280_humidity;BME280_pressure;Samples;Min_cycle;Max_cycle;Signal;HPM_P1;HPM_P2
2023/05/23 00:00:57;;;;;;;47.20;28.77;;;13.50;99.90;;;;;;4933979;29;20173;-83
2023/05/23 00:03:24;;;;;;;44.40;28.47;;;13.50;99.90;;;;;;4934712;29;20180;-84
2023/05/23 00:05:50;;;;;;;51.33;30.37;;;13.50;99.90;;;;;;4936835;29;20195;-81
2023/05/23 00:08:16;;;;;;;43.80;28.03;;;13.70;99.90;;;;;;4940055;29;20199;-83
2023/05/23 00:10:43;;;;;;;47.50;29.87;;;13.60;99.90;;;;;;4942745;29;20220;-85
2023/05/23 00:13:11;;;;;;;47.33;29.73;;;13.60;99.90;;;;;;4938022;29;20525;-83
2023/05/23 00:15:37;;;;;;;50.23;31.00;;;13.60;99.90;;;;;;4938579;29;20215;-84
2023/05/23 00:18:03;;;;;;;49.43;31.00;;;13.60;99.90;;;;;;4937560;29;20184;-83
2023/05/23 00:20:29;;;;;;;51.17;29.03;;;13.60;99.90;;;;;;4937081;29;20192;-82
2023/05/23 00:22:57;;;;;;;50.43;29.70;;;13.70;99.90;;;;;;4935548;29;20184;-81
2023/05/23 00:25:23;;;;;;;50.00;29.77;;;13.70;99.90;;;;;;4935739;29;20181;-82
2023/05/23 00:27:50;;;;;;;49.93;30.07;;;13.80;99.90;;;;;;4939693;28;20183;-82
2023/05/23 00:30:16;;;;;;;46.43;29.43;;;13.80;99.90;;;;;;4953467;28;20232;-82
2023/05/23 00:32:44;;;;;;;51.47;29.23;;;13.80;99.90;;;;;;4945981;29;20181;-83
2023/05/23 00:35:13;;;;;;;53.97;31.03;;;13.90;99.90;;;;;;4944250;29;20629;-81
2023/05/23 00:37:39;;;;;;;49.80;31.13;;;13.90;99.90;;;;;;4941991;29;20166;-82
2023/05/23 00:40:05;;;;;;;48.37;28.70;;;13.90;99.90;;;;;;4941514;29;20175;-82
2023/05/23 00:42:33;;;;;;;54.63;31.03;;;13.80;99.90;;;;;;4940757;29;20168;-82
2023/05/23 00:44:58;;;;;;;53.63;30.70;;;13.80;99.90;;;;;;4939870;29;20175;-81
2023/05/23 00:47:24;;;;;;;54.53;32.77;;;13.90;99.90;;;;;;4940602;29;20713;-82
2023/05/23 00:49:50;;;;;;;52.93;32.53;;;13.90;99.90;;;;;;4940202;29;20188;-81
2023/05/23 00:52:16;;;;;;;59.43;34.50;;;13.90;99.90;;;;;;4962046;28;20277;-81
2023/05/23 00:54:42;;;;;;;63.87;33.17;;;14.00;99.90;;;;;;4949643;29;20181;-82
2023/05/23 00:57:11;;;;;;;51.47;31.90;;;14.10;99.90;;;;;;4946186;29;20678;-81
2023/05/23 00:59:38;;;;;;;60.70;34.20;;;14.00;99.90;;;;;;4939932;29;20177;-81
2023/05/23 01:02:04;;;;;;;64.77;35.67;;;13.90;99.90;;;;;;4939860;29;20194;-81
2023/05/23 01:04:32;;;;;;;62.20;35.83;;;14.00;99.90;;;;;;4939475;29;20181;-81
2023/05/23 01:07:00;;;;;;;59.47;34.47;;;14.00;99.90;;;;;;4939372;29;20207;-83
2023/05/23 01:09:27;;;;;;;63.23;35.80;;;14.10;99.90;;;;;;4939568;29;20247;-81
2023/05/23 01:12:39;;;;;;;56.87;34.83;;;14.00;99.90;;;;;;4940578;29;20287;-82
2023/05/23 01:15:16;;;;;;;58.57;33.57;;;14.10;99.90;;;;;;4880618;29;20190;-83
2023/05/23 01:17:57;;;;;;;59.20;35.17;;;14.10;99.90;;;;;;4935917;29;20191;-83
2023/05/23 01:20:36;;;;;;;51.97;30.77;;;14.10;99.90;;;;;;4938067;29;20231;-83
2023/05/23 01:23:02;;;;;;;53.67;32.13;;;14.10;99.90;;;;;;4939235;29;20166;-82
2023/05/23 01:26:07;;;;;;;39.70;27.57;;;14.10;99.90;;;;;;4939671;29;20229;-82
2023/05/23 01:28:39;;;;;;;45.20;29.53;;;14.10;99.90;;;;;;4944057;29;20663;-84
2023/05/23 01:31:07;;;;;;;46.77;29.40;;;14.00;99.90;;;;;;4952291;29;20205;-83
2023/05/23 01:33:34;;;;;;;45.83;29.50;;;14.10;99.90;;;;;;4948823;29;20616;-82
2023/05/23 01:36:04;;;;;;;48.30;28.37;;;14.20;99.90;;;;;;4947892;29;20176;-83
2023/05/23 01:38:29;;;;;;;46.40;29.70;;;14.30;99.90;;;;;;4948154;29;20197;-83
2023/05/23 01:40:55;;;;;;;50.60;29.60;;;14.30;99.90;;;;;;4943592;29;20649;-83
2023/05/23 01:43:23;;;;;;;44.73;27.43;;;14.40;99.90;;;;;;4937706;29;20212;-82
2023/05/23 01:45:51;;;;;;;40.17;26.43;;;14.40;99.90;;;;;;4939060;29;20195;-83
2023/05/23 01:48:20;;;;;;;42.23;27.53;;;14.50;99.90;;;;;;4937561;29;20187;-84
2023/05/23 01:50:46;;;;;;;44.10;27.90;;;14.40;99.90;;;;;;4938712;29;20204;-83
2023/05/23 01:53:22;;;;;;;40.90;26.63;;;14.40;99.90;;;;;;4937404;29;20226;-83
2023/05/23 01:55:49;;;;;;;42.30;27.67;;;14.40;99.90;;;;;;4937522;29;20179;-84
2023/05/23 01:58:15;;;;;;;39.97;28.03;;;14.40;99.90;;;;;;4939121;29;20235;-83
2023/05/23 02:00:40;;;;;;;41.43;27.70;;;14.40;99.90;;;;;;4938408;29;20257;-82
2023/05/23 02:03:06;;;;;;;38.60;26.57;;;14.50;99.90;;;;;;4937578;29;20603;-83
2023/05/23 02:05:32;;;;;;;42.00;29.63;;;14.50;99.90;;;;;;4938406;29;20271;-83
2023/05/23 02:07:57;;;;;;;43.97;27.53;;;14.40;99.90;;;;;;4938339;29;20184;-83
2023/05/23 02:10:23;;;;;;;45.13;28.67;;;14.50;99.90;;;;;;4938498;29;20195;-84
2023/05/23 02:12:49;;;;;;;42.20;26.63;;;14.40;99.90;;;;;;4936715;29;20279;-81
2023/05/23 02:15:16;;;;;;;49.33;28.37;;;14.40;99.90;;;;;;4938355;29;20188;-81
2023/05/23 02:17:42;;;;;;;46.50;28.57;;;14.30;99.90;;;;;;4938399;29;20180;-81
2023/05/23 02:20:09;;;;;;;41.97;27.20;;;14.40;99.90;;;;;;4939318;29;20197;-82
2023/05/23 02:22:35;;;;;;;36.47;23.80;;;14.50;99.90;;;;;;4936730;29;20188;-82
2023/05/23 02:25:01;;;;;;;35.27;24.07;;;14.40;99.90;;;;;;4937580;29;20210;-81
2023/05/23 02:27:27;;;;;;;31.97;22.77;;;14.40;99.90;;;;;;4938050;29;20184;-83
2023/05/23 02:29:53;;;;;;;30.13;21.53;;;14.30;99.90;;;;;;4935793;29;20186;-82
2023/05/23 02:32:19;;;;;;;28.93;21.87;;;14.30;99.90;;;;;;4937024;29;20216;-82
2023/05/23 02:34:45;;;;;;;28.07;21.13;;;14.30;99.90;;;;;;4937415;29;20260;-82
2023/05/23 02:37:12;;;;;;;26.10;19.70;;;14.30;99.90;;;;;;4937364;29;20191;-82
2023/05/23 02:39:38;;;;;;;25.53;17.97;;;14.40;99.90;;;;;;4939157;29;20621;-80
2023/05/23 02:42:04;;;;;;;24.70;18.30;;;14.40;99.90;;;;;;4936762;29;20192;-83
2023/05/23 02:44:30;;;;;;;25.10;17.50;;;14.30;99.90;;;;;;4937448;29;20191;-81
2023/05/23 02:46:55;;;;;;;25.23;17.27;;;14.30;99.90;;;;;;4940217;29;20672;-80
2023/05/23 02:49:22;;;;;;;25.23;16.60;;;14.20;99.90;;;;;;4939718;29;20641;-81
2023/05/23 02:51:48;;;;;;;22.93;17.97;;;14.20;99.90;;;;;;4937706;29;20258;-82
2023/05/23 02:54:14;;;;;;;24.10;17.70;;;14.10;99.90;;;;;;4939063;29;20176;-82
2023/05/23 02:56:39;;;;;;;24.07;16.37;;;14.10;99.90;;;;;;4938850;29;20191;-81
2023/05/23 02:59:06;;;;;;;27.47;17.40;;;14.20;99.90;;;;;;4937905;29;20703;-81
2023/05/23 03:01:32;;;;;;;24.33;17.13;;;14.20;99.90;;;;;;4938355;29;20185;-81
2023/05/23 03:03:57;;;;;;;24.80;16.67;;;14.20;99.90;;;;;;4937263;29;20293;-82
2023/05/23 03:06:24;;;;;;;26.03;17.80;;;14.30;99.90;;;;;;4936937;29;20248;-82
2023/05/23 03:08:50;;;;;;;26.30;16.53;;;14.30;99.90;;;;;;4936968;29;20203;-81
2023/05/23 03:11:15;;;;;;;27.83;17.33;;;14.20;99.90;;;;;;4935243;29;20208;-81
2023/05/23 03:13:41;;;;;;;24.83;17.43;;;14.20;99.90;;;;;;4935311;29;20640;-81
2023/05/23 03:16:07;;;;;;;26.23;19.13;;;14.20;99.90;;;;;;4937114;29;20535;-82
2023/05/23 03:18:32;;;;;;;27.07;19.63;;;14.20;99.90;;;;;;4935986;29;20260;-83
2023/05/23 03:20:58;;;;;;;27.77;19.73;;;14.10;99.90;;;;;;4934938;29;20235;-82
2023/05/23 03:23:24;;;;;;;32.80;20.37;;;14.10;99.90;;;;;;4934771;29;20896;-83
2023/05/23 03:25:49;;;;;;;34.57;21.10;;;14.10;99.90;;;;;;4936686;29;20644;-82
2023/05/23 03:28:15;;;;;;;28.03;19.77;;;14.00;99.90;;;;;;4935718;29;20661;-80
2023/05/23 03:30:41;;;;;;;28.77;21.07;;;14.00;99.90;;;;;;4941865;29;20263;-81
2023/05/23 03:33:06;;;;;;;32.53;22.37;;;13.90;99.90;;;;;;4958671;28;20183;-80
2023/05/23 03:35:32;;;;;;;34.17;22.23;;;13.80;99.90;;;;;;4945579;29;20196;-82
2023/05/23 03:37:59;;;;;;;33.50;21.93;;;13.80;99.90;;;;;;4942792;29;20211;-82
2023/05/23 03:40:36;;;;;;;35.37;22.43;;;13.80;99.90;;;;;;4936503;29;20173;-82
2023/05/23 03:43:06;;;;;;;30.97;23.20;;;13.70;99.90;;;;;;4935615;29;20273;-81
2023/05/23 03:45:31;;;;;;;33.47;23.23;;;13.70;99.90;;;;;;4935283;29;20193;-81
2023/05/23 03:47:58;;;;;;;34.10;23.23;;;13.70;99.90;;;;;;4936475;29;20691;-80
2023/05/23 03:50:25;;;;;;;36.70;24.30;;;13.70;99.90;;;;;;4935983;29;20231;-81
2023/05/23 03:52:51;;;;;;;32.47;23.27;;;13.70;99.90;;;;;;4936705;29;20173;-81
2023/05/23 03:55:21;;;;;;;35.43;23.93;;;13.70;99.90;;;;;;4940571;29;20187;-81
2023/05/23 03:57:53;;;;;;;36.20;23.43;;;13.70;99.90;;;;;;4942270;29;20187;-81
2023/05/23 04:00:19;;;;;;;35.90;25.17;;;13.60;99.90;;;;;;4945912;29;20176;-83
2023/05/23 04:02:45;;;;;;;34.57;23.43;;;13.60;99.90;;;;;;4936587;29;20240;-83
2023/05/23 04:05:12;;;;;;;32.67;24.90;;;13.60;99.90;;;;;;4935225;29;20226;-83
2023/05/23 04:07:38;;;;;;;42.80;28.57;;;13.60;99.90;;;;;;4937956;29;20200;-83
2023/05/23 04:10:04;;;;;;;39.83;29.70;;;13.70;99.90;;;;;;4940686;29;20218;-83
2023/05/23 04:12:30;;;;;;;38.07;31.47;;;13.70;99.90;;;;;;4940387;29;20198;-83
2023/05/23 04:14:59;;;;;;;41.77;28.40;;;13.70;99.90;;;;;;4942287;29;20239;-82
2023/05/23 04:17:28;;;;;;;36.03;26.83;;;13.70;99.90;;;;;;4939783;29;20169;-82
2023/05/23 04:19:54;;;;;;;37.53;26.90;;;13.70;99.90;;;;;;4940088;29;20168;-84
2023/05/23 04:22:19;;;;;;;35.03;25.73;;;13.80;99.90;;;;;;4940194;29;20270;-83
2023/05/23 04:24:45;;;;;;;33.60;25.53;;;13.90;99.90;;;;;;4938869;29;20272;-83
2023/05/23 04:27:12;;;;;;;29.87;23.00;;;13.90;99.90;;;;;;4938467;29;20181;-84
2023/05/23 04:29:38;;;;;;;31.87;23.23;;;13.80;99.90;;;;;;4962779;28;20212;-82
2023/05/23 04:32:05;;;;;;;36.23;25.57;;;13.90;99.90;;;;;;4959882;28;20198;-83
2023/05/23 04:34:34;;;;;;;30.23;23.33;;;13.90;99.90;;;;;;4963984;28;20177;-83
2023/05/23 04:37:01;;;;;;;30.40;22.00;;;13.90;99.90;;;;;;4956153;29;20641;-82
2023/05/23 04:39:30;;;;;;;32.20;21.90;;;14.00;99.90;;;;;;4949258;29;20172;-83
2023/05/23 04:42:01;;;;;;;29.07;21.87;;;14.10;99.90;;;;;;4940368;29;20173;-82
2023/05/23 04:44:29;;;;;;;30.23;20.97;;;14.10;99.90;;;;;;4938383;29;20217;-83
2023/05/23 04:46:55;;;;;;;30.57;21.90;;;14.10;99.90;;;;;;4937185;29;20736;-83
2023/05/23 04:49:22;;;;;;;26.13;21.80;;;14.10;99.90;;;;;;4938094;29;20185;-84
2023/05/23 04:51:48;;;;;;;27.47;21.77;;;14.10;99.90;;;;;;4938899;29;20331;-82
2023/05/23 04:54:14;;;;;;;29.07;22.17;;;14.10;99.90;;;;;;4938589;29;20618;-83
2023/05/23 04:56:39;;;;;;;28.90;24.70;;;14.10;99.90;;;;;;4939939;29;20267;-83
2023/05/23 04:59:07;;;;;;;29.60;23.67;;;14.20;99.90;;;;;;4940110;29;20211;-83
2023/05/23 05:01:33;;;;;;;29.80;25.10;;;14.10;99.90;;;;;;4938653;29;20183;-84
2023/05/23 05:04:00;;;;;;;33.33;25.50;;;14.20;99.90;;;;;;4938283;29;20188;-83
2023/05/23 05:06:27;;;;;;;29.63;22.47;;;14.20;99.90;;;;;;4938875;29;20201;-82
2023/05/23 05:08:53;;;;;;;29.13;23.53;;;14.20;99.90;;;;;;4939230;29;20264;-82
2023/05/23 05:11:18;;;;;;;30.07;23.27;;;14.20;99.90;;;;;;4939674;29;20272;-82
2023/05/23 05:13:44;;;;;;;30.80;21.93;;;14.30;99.90;;;;;;4939370;29;20203;-83
2023/05/23 05:16:10;;;;;;;29.10;21.20;;;14.40;99.90;;;;;;4937639;29;20188;-85
2023/05/23 05:18:36;;;;;;;28.40;19.77;;;14.50;99.90;;;;;;4937670;29;20228;-84
2023/05/23 05:21:02;;;;;;;25.00;18.57;;;14.50;99.90;;;;;;4939138;29;20187;-83
2023/05/23 05:23:27;;;;;;;23.93;18.47;;;14.50;99.90;;;;;;4938061;29;20182;-83
2023/05/23 05:25:55;;;;;;;24.43;15.77;;;14.50;99.90;;;;;;4945585;29;20264;-82
2023/05/23 05:28:21;;;;;;;23.40;16.20;;;14.40;99.90;;;;;;4950156;29;20701;-82
2023/05/23 05:30:47;;;;;;;29.27;17.03;;;14.30;99.90;;;;;;4946863;29;20235;-84
2023/05/23 05:33:14;;;;;;;25.13;17.50;;;14.20;99.90;;;;;;4949224;29;20188;-83
2023/05/23 05:35:40;;;;;;;24.20;16.60;;;14.10;99.90;;;;;;4950249;29;20241;-82
2023/05/23 05:38:07;;;;;;;26.10;16.67;;;14.20;99.90;;;;;;4945953;29;20180;-83
2023/05/23 05:40:33;;;;;;;25.80;15.23;;;14.20;99.90;;;;;;4942135;29;20195;-82
2023/05/23 05:42:59;;;;;;;29.43;15.00;;;14.10;99.90;;;;;;4940622;29;20202;-81
2023/05/23 05:45:25;;;;;;;33.43;16.03;;;14.00;99.90;;;;;;4938339;29;20180;-83
2023/05/23 05:47:50;;;;;;;25.70;15.97;;;14.00;99.90;;;;;;4937519;29;20257;-83
2023/05/23 05:50:18;;;;;;;27.13;14.63;;;14.10;99.90;;;;;;4938279;29;20181;-84
2023/05/23 05:52:44;;;;;;;30.77;14.20;;;14.00;99.90;;;;;;4937398;29;20273;-83
2023/05/23 05:55:10;;;;;;;30.07;13.93;;;14.00;99.90;;;;;;4938207;29;20180;-83
2023/05/23 05:57:37;;;;;;;27.73;14.93;;;13.90;99.90;;;;;;4922536;29;20273;-82
2023/05/23 06:00:11;;;;;;;31.83;14.43;;;13.90;99.90;;;;;;4936760;29;20184;-83
2023/05/23 06:02:38;;;;;;;28.97;14.50;;;13.80;99.90;;;;;;4938405;29;20183;-83
2023/05/23 06:05:06;;;;;;;29.90;14.07;;;13.80;99.90;;;;;;4937159;29;20177;-84
2023/05/23 06:07:34;;;;;;;32.60;14.60;;;13.90;99.90;;;;;;4937007;29;20178;-82
2023/05/23 06:10:00;;;;;;;33.83;14.37;;;13.90;99.90;;;;;;4938192;29;20176;-83
2023/05/23 06:12:26;;;;;;;28.93;15.23;;;13.80;99.90;;;;;;4936515;29;20219;-82
2023/05/23 06:14:51;;;;;;;31.27;15.80;;;13.80;99.90;;;;;;4936667;29;20319;-83
2023/05/23 06:17:17;;;;;;;29.60;15.20;;;13.80;99.90;;;;;;4938754;29;20179;-83
2023/05/23 06:19:43;;;;;;;32.07;16.33;;;13.80;99.90;;;;;;4938026;29;20248;-82
2023/05/23 06:22:08;;;;;;;34.67;15.87;;;13.80;99.90;;;;;;4936973;29;20616;-83
2023/05/23 06:24:34;;;;;;;37.70;15.60;;;13.70;99.90;;;;;;4936494;29;20248;-83
2023/05/23 06:27:00;;;;;;;29.03;14.33;;;13.60;99.90;;;;;;4938929;29;20218;-82
2023/05/23 06:29:26;;;;;;;34.13;14.93;;;13.60;99.90;;;;;;4936148;29;20199;-82
2023/05/23 06:31:51;;;;;;;31.47;15.37;;;13.50;99.90;;;;;;4937974;29;20220;-82
2023/05/23 06:34:18;;;;;;;30.63;14.33;;;13.50;99.90;;;;;;4960388;28;20162;-82
2023/05/23 06:36:45;;;;;;;26.60;12.00;;;13.60;99.90;;;;;;4960286;28;20235;-83
2023/05/23 06:39:11;;;;;;;21.60;11.33;;;13.50;99.90;;;;;;4950558;29;20178;-83
2023/05/23 06:41:41;;;;;;;29.17;13.73;;;13.40;99.90;;;;;;4941961;29;20182;-82
2023/05/23 06:44:17;;;;;;;24.30;12.47;;;13.50;99.90;;;;;;4936781;29;20242;-83
2023/05/23 06:46:45;;;;;;;21.70;11.60;;;13.50;99.90;;;;;;4937299;29;20207;-83
2023/05/23 06:49:12;;;;;;;17.47;10.60;;;13.50;99.90;;;;;;4937869;29;20181;-82
2023/05/23 06:51:40;;;;;;;19.70;10.97;;;13.50;99.90;;;;;;4940623;29;20197;-83
2023/05/23 06:54:06;;;;;;;22.87;12.10;;;13.50;99.90;;;;;;4950622;28;20218;-82
2023/05/23 06:56:33;;;;;;;21.70;11.50;;;13.50;99.90;;;;;;4959732;28;20204;-84
2023/05/23 06:58:58;;;;;;;19.03;11.63;;;13.60;99.90;;;;;;4952355;29;20185;-83
2023/05/23 07:01:30;;;;;;;17.50;9.17;;;13.60;99.90;;;;;;4949352;29;20157;-84
2023/05/23 07:04:18;;;;;;;23.60;8.70;;;13.70;99.90;;;;;;4936490;29;20197;-83
2023/05/23 07:06:44;;;;;;;14.90;7.70;;;13.60;99.90;;;;;;4936363;29;20189;-84
2023/05/23 07:09:11;;;;;;;15.17;7.70;;;13.60;99.90;;;;;;4936040;29;20169;-83
2023/05/23 07:11:39;;;;;;;17.40;8.07;;;13.60;99.70;;;;;;4937013;29;20204;-83
2023/05/23 07:14:06;;;;;;;17.47;8.73;;;13.70;99.40;;;;;;4937176;29;20270;-85
2023/05/23 07:16:32;;;;;;;13.30;7.47;;;13.70;94.60;;;;;;4936844;29;20599;-84
2023/05/23 07:19:00;;;;;;;15.10;8.30;;;13.70;93.30;;;;;;4935867;29;20203;-82
2023/05/23 07:21:25;;;;;;;17.53;8.50;;;13.80;91.90;;;;;;4936812;29;20177;-85
2023/05/23 07:23:52;;;;;;;16.27;8.70;;;13.70;90.90;;;;;;4935691;29;20175;-82
2023/05/23 07:26:18;;;;;;;17.00;9.27;;;13.80;91.20;;;;;;4935268;29;20625;-82
2023/05/23 07:28:44;;;;;;;17.57;8.90;;;13.90;88.90;;;;;;4935451;29;20780;-83
2023/05/23 07:31:12;;;;;;;15.47;8.60;;;14.00;88.10;;;;;;4935611;29;20244;-83
2023/05/23 07:33:37;;;;;;;19.43;9.70;;;14.00;78.90;;;;;;4935619;29;20186;-83
2023/05/23 07:36:03;;;;;;;15.27;9.47;;;14.10;82.30;;;;;;4935447;29;20173;-83
2023/05/23 07:38:29;;;;;;;13.03;8.20;;;14.10;80.90;;;;;;4935570;29;20179;-83
2023/05/23 07:40:56;;;;;;;16.53;9.13;;;14.20;75.40;;;;;;4935667;29;20230;-82
2023/05/23 07:43:22;;;;;;;18.13;7.60;;;14.20;75.90;;;;;;4936880;29;20185;-82
2023/05/23 07:45:48;;;;;;;15.07;6.77;;;14.20;72.70;;;;;;4936247;29;20187;-84
2023/05/23 07:48:14;;;;;;;15.70;7.43;;;14.10;75.40;;;;;;4935824;29;20172;-83
2023/05/23 07:50:39;;;;;;;13.93;7.57;;;14.20;74.20;;;;;;4935080;29;20254;-83
2023/05/23 07:53:05;;;;;;;14.87;7.47;;;14.30;73.80;;;;;;4936973;29;20177;-82
2023/05/23 07:55:31;;;;;;;17.30;8.27;;;14.30;71.80;;;;;;4935229;29;20183;-85
2023/05/23 07:57:56;;;;;;;19.23;8.63;;;14.20;65.00;;;;;;4936863;29;20652;-83
2023/05/23 08:00:25;;;;;;;14.20;7.80;;;14.20;62.40;;;;;;4935665;29;20192;-84
2023/05/23 08:02:52;;;;;;;14.33;7.67;;;14.30;61.10;;;;;;4936027;29;20173;-83
2023/05/23 08:05:18;;;;;;;11.70;7.93;;;14.50;58.40;;;;;;4935348;29;20218;-81
2023/05/23 08:07:44;;;;;;;16.63;10.53;;;14.30;53.10;;;;;;4936802;29;20179;-83
2023/05/23 08:10:10;;;;;;;20.37;11.33;;;14.30;51.80;;;;;;4935222;29;20184;-82
2023/05/23 08:12:36;;;;;;;24.67;11.60;;;14.40;50.00;;;;;;4936446;29;20306;-84
2023/05/23 08:15:02;;;;;;;14.90;11.50;;;14.50;50.80;;;;;;4935655;29;20189;-83
2023/05/23 08:17:28;;;;;;;14.17;9.50;;;14.60;52.30;;;;;;4935184;29;20180;-84
2023/05/23 08:19:54;;;;;;;22.23;9.57;;;14.60;54.90;;;;;;4936582;29;20258;-84
2023/05/23 08:22:20;;;;;;;15.63;8.70;;;14.60;52.40;;;;;;4935181;29;20192;-83
2023/05/23 08:24:46;;;;;;;18.70;8.50;;;14.60;51.70;;;;;;4935035;29;20173;-84
2023/05/23 08:27:11;;;;;;;19.00;8.97;;;14.50;53.50;;;;;;4934875;29;20189;-82
2023/05/23 08:29:37;;;;;;;19.43;9.37;;;14.60;51.40;;;;;;4935251;29;20192;-85
2023/05/23 08:32:03;;;;;;;12.00;8.23;;;14.80;49.50;;;;;;4935542;29;20204;-85
2023/05/23 08:34:29;;;;;;;14.47;10.00;;;14.80;44.30;;;;;;4935061;29;20271;-83
2023/05/23 08:36:54;;;;;;;16.70;9.93;;;14.70;44.10;;;;;;4935267;29;20185;-84
2023/05/23 08:39:20;;;;;;;14.83;8.50;;;14.60;44.60;;;;;;4936516;29;20175;-82
2023/05/23 08:41:46;;;;;;;16.47;9.33;;;14.70;42.20;;;;;;4935372;29;20183;-83
2023/05/23 08:44:12;;;;;;;16.70;9.03;;;14.80;41.80;;;;;;4936411;29;20173;-84
2023/05/23 08:46:43;;;;;;;14.83;8.47;;;14.70;43.30;;;;;;4934853;29;20232;-82
2023/05/23 08:49:09;;;;;;;12.03;7.73;;;14.70;49.20;;;;;;4936393;29;20172;-84
2023/05/23 08:51:37;;;;;;;13.87;8.33;;;14.70;50.20;;;;;;4918882;29;20227;-83
2023/05/23 08:54:05;;;;;;;12.87;7.40;;;14.70;54.00;;;;;;4938092;29;20168;-82
2023/05/23 08:56:31;;;;;;;16.57;9.53;;;14.80;51.90;;;;;;4937902;29;20190;-83
2023/05/23 08:58:57;;;;;;;16.00;9.00;;;14.90;51.00;;;;;;4970271;28;20551;-82
2023/05/23 09:01:24;;;;;;;17.03;10.00;;;15.00;47.00;;;;;;4939436;29;20676;-84
2023/05/23 09:03:50;;;;;;;14.30;9.80;;;14.80;48.60;;;;;;4939014;29;20180;-83
2023/05/23 09:06:17;;;;;;;18.13;10.47;;;15.00;47.30;;;;;;4970621;28;20551;-83
2023/05/23 09:08:45;;;;;;;16.23;10.80;;;15.00;49.80;;;;;;4938110;29;20650;-83
2023/05/23 09:11:13;;;;;;;15.67;10.87;;;15.10;49.80;;;;;;4938419;29;20212;-81
2023/05/23 09:13:39;;;;;;;21.13;11.57;;;14.90;50.20;;;;;;4939031;29;20274;-82
2023/05/23 09:16:08;;;;;;;17.17;11.73;;;14.70;52.80;;;;;;4939967;29;20209;-82
2023/05/23 09:18:37;;;;;;;13.87;11.33;;;14.60;56.60;;;;;;4969120;28;20636;-81
2023/05/23 09:21:05;;;;;;;15.67;10.73;;;14.60;58.50;;;;;;4937952;29;20673;-82
2023/05/23 09:23:32;;;;;;;16.17;11.30;;;14.70;62.00;;;;;;4938850;29;20529;-83
2023/05/23 09:26:19;;;;;;;16.17;10.47;;;14.90;58.50;;;;;;4972401;28;20185;-83
2023/05/23 09:28:45;;;;;;;16.07;9.63;;;15.10;54.80;;;;;;4941001;29;20184;-83
2023/05/23 09:31:11;;;;;;;15.73;9.97;;;15.00;55.00;;;;;;4940886;29;20216;-82
2023/05/23 09:33:48;;;;;;;19.27;10.60;;;14.90;58.40;;;;;;4938505;29;20231;-83
2023/05/23 09:36:14;;;;;;;14.23;9.73;;;14.90;59.80;;;;;;4948850;28;20180;-84
2023/05/23 09:38:43;;;;;;;20.47;10.90;;;14.90;60.70;;;;;;4961744;28;20206;-83
2023/05/23 09:41:12;;;;;;;17.93;10.83;;;14.80;63.10;;;;;;4991026;28;20165;-83
2023/05/23 09:43:53;;;;;;;14.17;10.63;;;14.80;64.10;;;;;;4957250;29;20164;-82
2023/05/23 09:46:20;;;;;;;14.03;9.77;;;14.70;65.90;;;;;;4940446;29;20219;-84
2023/05/23 09:48:52;;;;;;;16.50;9.83;;;14.80;70.70;;;;;;4939679;29;20260;-82
2023/05/23 09:51:20;;;;;;;17.60;9.43;;;14.70;71.30;;;;;;4943318;29;20208;-83
2023/05/23 09:53:46;;;;;;;14.87;10.27;;;14.70;72.40;;;;;;4946128;29;20181;-83
2023/05/23 09:56:14;;;;;;;15.63;10.60;;;14.70;72.50;;;;;;4942279;29;20189;-83
2023/05/23 09:58:44;;;;;;;15.90;11.33;;;14.80;71.70;;;;;;4960890;28;20159;-82
2023/05/23 10:01:10;;;;;;;15.13;10.70;;;14.80;68.70;;;;;;4959202;28;20169;-82
2023/05/23 10:03:44;;;;;;;16.23;12.80;;;14.80;65.40;;;;;;4946836;29;20175;-83
2023/05/23 10:06:24;;;;;;;16.53;10.90;;;14.60;69.60;;;;;;4944938;29;20632;-85
2023/05/23 10:08:56;;;;;;;17.13;10.77;;;14.70;70.80;;;;;;4941059;29;20671;-83
2023/05/23 10:11:35;;;;;;;15.37;9.93;;;14.70;70.00;;;;;;4942120;29;20217;-85
2023/05/23 10:14:09;;;;;;;13.33;9.60;;;14.90;63.10;;;;;;4953653;29;20169;-84
2023/05/23 10:16:58;;;;;;;15.03;8.37;;;15.00;63.80;;;;;;4950547;29;20173;-84
2023/05/23 10:19:30;;;;;;;14.53;8.73;;;15.10;55.90;;;;;;4957119;29;20189;-84
2023/05/23 10:22:02;;;;;;;12.63;6.83;;;15.00;57.00;;;;;;4952690;29;20224;-85
2023/05/23 10:24:35;;;;;;;12.07;7.90;;;15.00;46.40;;;;;;4944638;29;20173;-84
2023/05/23 10:27:03;;;;;;;12.57;7.77;;;15.10;53.70;;;;;;4942734;29;20196;-83
2023/05/23 10:29:30;;;;;;;11.10;7.73;;;15.20;53.50;;;;;;4940979;29;20181;-82
2023/05/23 10:31:57;;;;;;;12.27;7.50;;;15.20;54.30;;;;;;4937035;29;20259;-84
2023/05/23 10:34:37;;;;;;;12.13;6.73;;;15.20;54.80;;;;;;4936874;29;20192;-82
2023/05/23 10:37:05;;;;;;;11.37;6.97;;;15.20;54.10;;;;;;4937109;29;20188;-82
2023/05/23 10:39:56;;;;;;;7.97;5.77;;;15.20;50.50;;;;;;4936970;29;20208;-83
2023/05/23 10:42:28;;;;;;;8.93;4.80;;;15.10;48.70;;;;;;4938052;29;20177;-82
2023/05/23 10:45:17;;;;;;;9.00;5.57;;;15.10;47.30;;;;;;4937692;29;20176;-83
2023/05/23 10:47:44;;;;;;;9.67;5.57;;;15.30;46.10;;;;;;4937774;29;20296;-82
2023/05/23 10:50:14;;;;;;;9.07;5.07;;;15.50;44.50;;;;;;4935985;29;20590;-84
2023/05/23 10:52:40;;;;;;;7.83;3.93;;;15.60;5.40;;;;;;4935947;29;20216;-82
2023/05/23 10:55:18;;;;;;;9.00;4.27;;;15.60;1.00;;;;;;4968177;28;20547;-82
2023/05/23 10:57:45;;;;;;;9.43;3.70;;;15.50;1.00;;;;;;4937714;29;20216;-84
2023/05/23 11:00:15;;;;;;;8.37;3.60;;;15.80;1.00;;;;;;4938390;29;20196;-83
2023/05/23 11:02:58;;;;;;;10.93;4.07;;;15.90;1.00;;;;;;4937097;29;20668;-83
2023/05/23 11:05:27;;;;;;;7.80;4.33;;;16.20;1.00;;;;;;4942872;29;20203;-82
2023/05/23 11:08:12;;;;;;;7.37;4.20;;;16.20;1.00;;;;;;4956618;29;20177;-81
2023/05/23 11:10:59;;;;;;;9.77;4.40;;;16.20;1.00;;;;;;4955735;29;20169;-83
2023/05/23 11:13:40;;;;;;;11.30;5.00;;;15.70;1.00;;;;;;4955771;29;20208;-83
2023/05/23 11:16:29;;;;;;;9.63;4.27;;;15.70;1.00;;;;;;4939991;29;20192;-82
2023/05/23 11:19:16;;;;;;;8.50;4.10;;;15.90;1.00;;;;;;4967605;28;20208;-82
2023/05/23 11:21:44;;;;;;;8.50;4.70;;;16.00;1.00;;;;;;4935233;29;20200;-83
2023/05/23 11:24:11;;;;;;;9.87;4.47;;;16.10;1.00;;;;;;4936729;29;20164;-83
2023/05/23 11:26:37;;;;;;;9.47;4.07;;;16.20;1.00;;;;;;4935087;29;20178;-83
2023/05/23 11:29:08;;;;;;;13.67;4.57;;;16.30;1.00;;;;;;4937054;29;20177;-83
2023/05/23 11:31:39;;;;;;;13.30;5.00;;;16.30;1.00;;;;;;4935590;29;20216;-82
2023/05/23 11:34:06;;;;;;;13.10;4.37;;;16.30;1.00;;;;;;4936699;29;20161;-83
2023/05/23 11:36:32;;;;;;;11.23;4.60;;;16.50;1.00;;;;;;4940068;29;20169;-82
2023/05/23 11:39:03;;;;;;;12.60;4.20;;;16.40;1.00;;;;;;4957033;28;20708;-81
2023/05/23 11:41:29;;;;;;;11.13;4.30;;;16.50;1.00;;;;;;4938376;29;20188;-83
2023/05/23 11:43:55;;;;;;;9.57;3.87;;;16.60;1.00;;;;;;4935451;29;20339;-84
2023/05/23 11:46:21;;;;;;;8.07;3.97;;;16.70;1.00;;;;;;4940127;29;20214;-82
2023/05/23 11:48:47;;;;;;;12.00;4.67;;;16.60;1.00;;;;;;4937606;29;20173;-83
2023/05/23 11:51:14;;;;;;;13.73;4.27;;;16.40;1.00;;;;;;4935365;29;20235;-84
2023/05/23 11:53:40;;;;;;;12.50;4.63;;;16.40;1.00;;;;;;4967436;28;20196;-83
2023/05/23 11:56:07;;;;;;;9.77;3.70;;;16.60;1.00;;;;;;4936688;29;20227;-82
2023/05/23 11:58:34;;;;;;;9.13;3.43;;;16.80;1.00;;;;;;4935369;29;20221;-84
2023/05/23 12:01:02;;;;;;;12.33;3.97;;;17.00;1.00;;;;;;4936672;29;20269;-83
2023/05/23 12:03:27;;;;;;;11.57;4.00;;;17.00;1.00;;;;;;4936652;29;20169;-82
2023/05/23 12:06:01;;;;;;;11.27;4.60;;;17.00;1.00;;;;;;4936194;29;20556;-83
2023/05/23 12:08:27;;;;;;;13.50;4.23;;;17.10;1.00;;;;;;4936435;29;20629;-83
2023/05/23 12:10:57;;;;;;;14.63;4.47;;;17.00;1.00;;;;;;4936183;29;20193;-83
2023/05/23 12:13:24;;;;;;;11.33;4.20;;;16.80;1.00;;;;;;4935654;29;20192;-82
2023/05/23 12:15:59;;;;;;;9.67;3.83;;;16.60;1.00;;;;;;4935155;29;20660;-81
2023/05/23 12:18:29;;;;;;;11.93;3.37;;;16.60;1.00;;;;;;4935380;29;20207;-82
2023/05/23 12:21:00;;;;;;;12.50;4.33;;;16.70;1.00;;;;;;4936692;29;20197;-83
2023/05/23 12:23:27;;;;;;;14.57;4.37;;;17.10;1.00;;;;;;4969754;28;20187;-82
2023/05/23 12:25:55;;;;;;;16.67;4.40;;;17.30;1.00;;;;;;4935427;29;20181;-81
2023/05/23 12:28:36;;;;;;;18.47;4.57;;;17.30;1.00;;;;;;4939515;29;20194;-82
2023/05/23 12:31:16;;;;;;;17.53;4.90;;;17.30;1.00;;;;;;4939129;29;20205;-83
2023/05/23 12:33:44;;;;;;;17.23;4.73;;;17.20;1.00;;;;;;4940674;29;20176;-81
2023/05/23 12:36:11;;;;;;;7.90;3.60;;;17.30;1.00;;;;;;4939131;29;20191;-82
2023/05/23 12:38:39;;;;;;;8.57;3.90;;;17.50;1.00;;;;;;4938897;29;20231;-83